sensor_id;sensor_type;location;lat;lon;timestamp;P1;durP1;ratioP1;P2;durP2;ratioP2
31238;SDS011;17871;31.584;74.450;2023-02-19T00:01:59;315.83;;;148.48;;
31238;SDS011;17871;31.584;74.450;2023-02-19T00:04:28;317.00;;;145.77;;
31238;SDS011;17871;31.584;74.450;2023-02-19T00:06:57;312.58;;;138.70;;
31238;SDS011;17871;31.584;74.450;2023-02-19T00:09:26;281.48;;;133.35;;
31238;SDS011;17871;31.584;74.450;2023-02-19T00:11:55;262.80;;;129.73;;
31238;SDS011;17871;31.584;74.450;2023-02-19T00:14:23;262.15;;;124.80;;
31238;SDS011;17871;31.584;74.450;2023-02-19T00:16:52;239.95;;;117.88;;
31238;SDS011;17871;31.584;74.450;2023-02-19T00:19:21;276.13;;;118.15;;
31238;SDS011;17871;31.584;74.450;2023-02-19T00:21:51;225.85;;;112.38;;
31238;SDS011;17871;31.584;74.450;2023-02-19T00:24:20;225.63;;;107.35;;
31238;SDS011;17871;31.584;74.450;2023-02-19T00:26:49;199.45;;;101.70;;
31238;SDS011;17871;31.584;74.450;2023-02-19T00:29:19;203.80;;;96.20;;
31238;SDS011;17871;31.584;74.450;2023-02-19T00:31:49;200.95;;;94.50;;
31238;SDS011;17871;31.584;74.450;2023-02-19T00:34:17;208.18;;;95.40;;
31238;SDS011;17871;31.584;74.450;2023-02-19T00:36:47;193.63;;;99.38;;
31238;SDS011;17871;31.584;74.450;2023-02-19T00:39:15;208.52;;;97.13;;
31238;SDS011;17871;31.584;74.450;2023-02-19T00:41:45;188.25;;;95.32;;
31238;SDS011;17871;31.584;74.450;2023-02-19T00:44:14;196.57;;;96.75;;
31238;SDS011;17871;31.584;74.450;2023-02-19T00:46:44;194.32;;;94.85;;
31238;SDS011;17871;31.584;74.450;2023-02-19T00:49:16;185.38;;;94.00;;
31238;SDS011;17871;31.584;74.450;2023-02-19T00:51:48;183.30;;;92.15;;
31238;SDS011;17871;31.584;74.450;2023-02-19T00:54:19;189.00;;;94.43;;
31238;SDS011;17871;31.584;74.450;2023-02-19T00:56:50;187.52;;;89.78;;
31238;SDS011;17871;31.584;74.450;2023-02-19T00:59:19;191.15;;;89.53;;
31238;SDS011;17871;31.584;74.450;2023-02-19T01:01:48;180.15;;;92.35;;
31238;SDS011;17871;31.584;74.450;2023-02-19T01:04:21;177.20;;;86.72;;
31238;SDS011;17871;31.584;74.450;2023-02-19T01:09:24;171.43;;;83.40;;
31238;SDS011;17871;31.584;74.450;2023-02-19T01:11:55;166.23;;;86.35;;
31238;SDS011;17871;31.584;74.450;2023-02-19T01:14:24;182.98;;;89.18;;
31238;SDS011;17871;31.584;74.450;2023-02-19T01:16:54;183.07;;;83.97;;
31238;SDS011;17871;31.584;74.450;2023-02-19T01:19:24;174.85;;;86.80;;
31238;SDS011;17871;31.584;74.450;2023-02-19T01:21:54;176.27;;;88.38;;
31238;SDS011;17871;31.584;74.450;2023-02-19T01:24:25;170.02;;;84.65;;
31238;SDS011;17871;31.584;74.450;2023-02-19T01:26:54;177.65;;;84.05;;
31238;SDS011;17871;31.584;74.450;2023-02-19T01:29:24;152.63;;;80.03;;
31238;SDS011;17871;31.584;74.450;2023-02-19T01:31:53;158.35;;;80.78;;
31238;SDS011;17871;31.584;74.450;2023-02-19T01:34:23;163.48;;;79.95;;
31238;SDS011;17871;31.584;74.450;2023-02-19T01:36:54;163.45;;;78.93;;
31238;SDS011;17871;31.584;74.450;2023-02-19T01:39:24;177.10;;;81.78;;
31238;SDS011;17871;31.584;74.450;2023-02-19T01:41:53;163.00;;;79.50;;
31238;SDS011;17871;31.584;74.450;2023-02-19T01:46:55;167.60;;;81.53;;
31238;SDS011;17871;31.584;74.450;2023-02-19T01:49:27;167.32;;;84.18;;
31238;SDS011;17871;31.584;74.450;2023-02-19T01:52:08;164.25;;;84.78;;
31238;SDS011;17871;31.584;74.450;2023-02-19T01:54:43;161.48;;;83.70;;
31238;SDS011;17871;31.584;74.450;2023-02-19T01:57:21;172.77;;;83.18;;
31238;SDS011;17871;31.584;74.450;2023-02-19T01:59:57;175.65;;;85.68;;
31238;SDS011;17871;31.584;74.450;2023-02-19T02:02:38;175.70;;;84.22;;
31238;SDS011;17871;31.584;74.450;2023-02-19T02:05:14;173.52;;;83.90;;
31238;SDS011;17871;31.584;74.450;2023-02-19T02:07:52;168.07;;;80.45;;
31238;SDS011;17871;31.584;74.450;2023-02-19T02:10:40;168.00;;;82.05;;
31238;SDS011;17871;31.584;74.450;2023-02-19T02:13:11;158.43;;;82.68;;
31238;SDS011;17871;31.584;74.450;2023-02-19T02:15:49;156.27;;;78.95;;
31238;SDS011;17871;31.584;74.450;2023-02-19T02:18:50;160.80;;;76.20;;
31238;SDS011;17871;31.584;74.450;2023-02-19T02:24:32;192.93;;;91.45;;
31238;SDS011;17871;31.584;74.450;2023-02-19T02:32:53;167.13;;;74.90;;
31238;SDS011;17871;31.584;74.450;2023-02-19T02:38:25;135.63;;;73.85;;
31238;SDS011;17871;31.584;74.450;2023-02-19T02:41:01;154.85;;;74.88;;
31238;SDS011;17871;31.584;74.450;2023-02-19T02:43:31;144.13;;;72.45;;
31238;SDS011;17871;31.584;74.450;2023-02-19T02:46:02;127.88;;;66.78;;
31238;SDS011;17871;31.584;74.450;2023-02-19T02:48:38;138.80;;;70.45;;
31238;SDS011;17871;31.584;74.450;2023-02-19T02:51:29;137.40;;;69.85;;
31238;SDS011;17871;31.584;74.450;2023-02-19T02:54:10;134.27;;;65.50;;
31238;SDS011;17871;31.584;74.450;2023-02-19T02:57:21;123.80;;;64.85;;
31238;SDS011;17871;31.584;74.450;2023-02-19T02:59:54;125.80;;;68.13;;
31238;SDS011;17871;31.584;74.450;2023-02-19T03:02:25;128.13;;;66.35;;
31238;SDS011;17871;31.584;74.450;2023-02-19T03:08:30;143.52;;;67.78;;
31238;SDS011;17871;31.584;74.450;2023-02-19T03:11:20;130.48;;;65.72;;
31238;SDS011;17871;31.584;74.450;2023-02-19T03:14:19;127.20;;;66.43;;
31238;SDS011;17871;31.584;74.450;2023-02-19T03:17:15;112.32;;;63.63;;
31238;SDS011;17871;31.584;74.450;2023-02-19T03:20:11;121.85;;;63.90;;
31238;SDS011;17871;31.584;74.450;2023-02-19T03:22:43;148.43;;;69.95;;
31238;SDS011;17871;31.584;74.450;2023-02-19T03:25:24;135.32;;;70.13;;
31238;SDS011;17871;31.584;74.450;2023-02-19T03:28:24;143.60;;;69.53;;
31238;SDS011;17871;31.584;74.450;2023-02-19T03:31:15;131.45;;;69.75;;
31238;SDS011;17871;31.584;74.450;2023-02-19T03:33:49;140.55;;;70.30;;
31238;SDS011;17871;31.584;74.450;2023-02-19T03:36:23;132.55;;;70.15;;
31238;SDS011;17871;31.584;74.450;2023-02-19T03:39:02;135.38;;;68.05;;
31238;SDS011;17871;31.584;74.450;2023-02-19T03:41:36;132.70;;;65.57;;
31238;SDS011;17871;31.584;74.450;2023-02-19T03:47:17;126.55;;;66.93;;
31238;SDS011;17871;31.584;74.450;2023-02-19T03:49:48;116.80;;;63.72;;
31238;SDS011;17871;31.584;74.450;2023-02-19T03:52:40;127.63;;;65.63;;
31238;SDS011;17871;31.584;74.450;2023-02-19T03:55:11;124.07;;;64.15;;
31238;SDS011;17871;31.584;74.450;2023-02-19T04:00:52;105.95;;;58.88;;
31238;SDS011;17871;31.584;74.450;2023-02-19T04:06:16;108.90;;;55.63;;
31238;SDS011;17871;31.584;74.450;2023-02-19T04:08:51;92.38;;;53.05;;
31238;SDS011;17871;31.584;74.450;2023-02-19T04:11:24;102.15;;;54.38;;
31238;SDS011;17871;31.584;74.450;2023-02-19T04:16:57;99.57;;;59.40;;
31238;SDS011;17871;31.584;74.450;2023-02-19T04:19:30;91.47;;;51.10;;
31238;SDS011;17871;31.584;74.450;2023-02-19T04:22:03;86.45;;;47.83;;
31238;SDS011;17871;31.584;74.450;2023-02-19T04:24:35;82.95;;;45.53;;
31238;SDS011;17871;31.584;74.450;2023-02-19T04:27:07;89.47;;;46.00;;
31238;SDS011;17871;31.584;74.450;2023-02-19T04:29:38;75.82;;;42.78;;
31238;SDS011;17871;31.584;74.450;2023-02-19T04:32:08;90.00;;;46.70;;
31238;SDS011;17871;31.584;74.450;2023-02-19T04:34:38;85.80;;;44.40;;
31238;SDS011;17871;31.584;74.450;2023-02-19T04:37:07;89.03;;;46.28;;
31238;SDS011;17871;31.584;74.450;2023-02-19T04:39:36;100.03;;;47.53;;
31238;SDS011;17871;31.584;74.450;2023-02-19T04:42:05;82.55;;;46.88;;
31238;SDS011;17871;31.584;74.450;2023-02-19T04:44:34;90.72;;;49.85;;
31238;SDS011;17871;31.584;74.450;2023-02-19T04:47:03;91.07;;;47.58;;
31238;SDS011;17871;31.584;74.450;2023-02-19T04:49:32;93.55;;;50.05;;
31238;SDS011;17871;31.584;74.450;2023-02-19T04:52:00;83.20;;;47.92;;
31238;SDS011;17871;31.584;74.450;2023-02-19T04:54:29;83.63;;;47.60;;
31238;SDS011;17871;31.584;74.450;2023-02-19T04:56:58;93.35;;;49.15;;
31238;SDS011;17871;31.584;74.450;2023-02-19T04:59:27;83.97;;;48.50;;
31238;SDS011;17871;31.584;74.450;2023-02-19T05:01:56;83.43;;;46.03;;
31238;SDS011;17871;31.584;74.450;2023-02-19T05:04:25;94.38;;;50.75;;
31238;SDS011;17871;31.584;74.450;2023-02-19T05:06:54;95.63;;;47.70;;
31238;SDS011;17871;31.584;74.450;2023-02-19T05:09:23;95.18;;;49.63;;
31238;SDS011;17871;31.584;74.450;2023-02-19T05:11:51;94.38;;;49.85;;
31238;SDS011;17871;31.584;74.450;2023-02-19T05:14:20;91.40;;;49.53;;
31238;SDS011;17871;31.584;74.450;2023-02-19T05:16:49;93.22;;;50.60;;
31238;SDS011;17871;31.584;74.450;2023-02-19T05:19:18;96.03;;;51.60;;
31238;SDS011;17871;31.584;74.450;2023-02-19T05:21:47;92.95;;;51.15;;
31238;SDS011;17871;31.584;74.450;2023-02-19T05:24:19;91.32;;;49.03;;
31238;SDS011;17871;31.584;74.450;2023-02-19T05:26:48;87.65;;;49.47;;
31238;SDS011;17871;31.584;74.450;2023-02-19T05:29:17;85.93;;;48.55;;
31238;SDS011;17871;31.584;74.450;2023-02-19T05:31:46;91.15;;;49.70;;
31238;SDS011;17871;31.584;74.450;2023-02-19T05:34:15;88.38;;;47.92;;
31238;SDS011;17871;31.584;74.450;2023-02-19T05:36:45;95.88;;;46.65;;
31238;SDS011;17871;31.584;74.450;2023-02-19T05:39:13;86.53;;;47.83;;
31238;SDS011;17871;31.584;74.450;2023-02-19T05:41:43;97.88;;;49.97;;
31238;SDS011;17871;31.584;74.450;2023-02-19T05:44:11;98.43;;;49.08;;
31238;SDS011;17871;31.584;74.450;2023-02-19T05:46:40;79.63;;;46.60;;
31238;SDS011;17871;31.584;74.450;2023-02-19T05:49:09;90.82;;;48.38;;
31238;SDS011;17871;31.584;74.450;2023-02-19T05:51:38;85.75;;;45.83;;
31238;SDS011;17871;31.584;74.450;2023-02-19T05:54:07;89.93;;;47.15;;
31238;SDS011;17871;31.584;74.450;2023-02-19T05:56:37;88.50;;;45.45;;
31238;SDS011;17871;31.584;74.450;2023-02-19T05:59:22;88.63;;;46.70;;
31238;SDS011;17871;31.584;74.450;2023-02-19T06:01:52;89.72;;;45.80;;
31238;SDS011;17871;31.584;74.450;2023-02-19T06:04:22;87.15;;;45.35;;
31238;SDS011;17871;31.584;74.450;2023-02-19T06:06:50;90.80;;;46.13;;
31238;SDS011;17871;31.584;74.450;2023-02-19T06:09:20;83.95;;;44.50;;
31238;SDS011;17871;31.584;74.450;2023-02-19T06:11:48;88.22;;;44.22;;
31238;SDS011;17871;31.584;74.450;2023-02-19T06:14:17;87.93;;;46.38;;
31238;SDS011;17871;31.584;74.450;2023-02-19T06:16:46;78.45;;;43.22;;
31238;SDS011;17871;31.584;74.450;2023-02-19T06:19:15;100.80;;;45.90;;
31238;SDS011;17871;31.584;74.450;2023-02-19T06:21:43;89.10;;;44.75;;
31238;SDS011;17871;31.584;74.450;2023-02-19T06:24:13;87.63;;;42.63;;
31238;SDS011;17871;31.584;74.450;2023-02-19T06:26:42;79.57;;;43.35;;
31238;SDS011;17871;31.584;74.450;2023-02-19T06:29:11;77.90;;;43.25;;
31238;SDS011;17871;31.584;74.450;2023-02-19T06:31:39;80.65;;;43.30;;
31238;SDS011;17871;31.584;74.450;2023-02-19T06:34:09;82.20;;;42.78;;
31238;SDS011;17871;31.584;74.450;2023-02-19T06:36:37;79.47;;;44.28;;
31238;SDS011;17871;31.584;74.450;2023-02-19T06:39:06;88.57;;;43.15;;
31238;SDS011;17871;31.584;74.450;2023-02-19T06:41:36;93.28;;;43.10;;
31238;SDS011;17871;31.584;74.450;2023-02-19T06:44:05;85.20;;;42.22;;
31238;SDS011;17871;31.584;74.450;2023-02-19T06:46:34;82.90;;;42.35;;
31238;SDS011;17871;31.584;74.450;2023-02-19T06:49:03;86.95;;;41.85;;
31238;SDS011;17871;31.584;74.450;2023-02-19T06:51:32;76.80;;;39.10;;
31238;SDS011;17871;31.584;74.450;2023-02-19T06:54:02;84.40;;;41.95;;
31238;SDS011;17871;31.584;74.450;2023-02-19T06:56:35;73.55;;;40.97;;
31238;SDS011;17871;31.584;74.450;2023-02-19T06:59:08;65.93;;;38.90;;
31238;SDS011;17871;31.584;74.450;2023-02-19T07:01:39;78.15;;;39.55;;
31238;SDS011;17871;31.584;74.450;2023-02-19T07:04:08;61.90;;;35.47;;
31238;SDS011;17871;31.584;74.450;2023-02-19T07:06:37;71.53;;;35.92;;
31238;SDS011;17871;31.584;74.450;2023-02-19T07:09:06;66.80;;;34.78;;
31238;SDS011;17871;31.584;74.450;2023-02-19T07:11:36;73.15;;;33.65;;
31238;SDS011;17871;31.584;74.450;2023-02-19T07:14:07;61.75;;;34.13;;
31238;SDS011;17871;31.584;74.450;2023-02-19T07:16:42;77.60;;;34.65;;
31238;SDS011;17871;31.584;74.450;2023-02-19T07:19:12;69.30;;;34.67;;
31238;SDS011;17871;31.584;74.450;2023-02-19T07:21:42;68.90;;;34.78;;
31238;SDS011;17871;31.584;74.450;2023-02-19T07:24:11;61.60;;;33.70;;
31238;SDS011;17871;31.584;74.450;2023-02-19T07:26:40;62.17;;;32.67;;
31238;SDS011;17871;31.584;74.450;2023-02-19T07:29:08;61.30;;;31.15;;
31238;SDS011;17871;31.584;74.450;2023-02-19T07:31:38;62.13;;;31.13;;
31238;SDS011;17871;31.584;74.450;2023-02-19T07:34:06;57.38;;;30.40;;
31238;SDS011;17871;31.584;74.450;2023-02-19T07:36:36;65.00;;;29.52;;
31238;SDS011;17871;31.584;74.450;2023-02-19T07:39:04;60.15;;;29.65;;
31238;SDS011;17871;31.584;74.450;2023-02-19T07:41:36;65.05;;;32.05;;
31238;SDS011;17871;31.584;74.450;2023-02-19T07:44:05;62.30;;;33.33;;
31238;SDS011;17871;31.584;74.450;2023-02-19T07:46:34;72.35;;;33.65;;
31238;SDS011;17871;31.584;74.450;2023-02-19T07:49:02;66.43;;;33.22;;
31238;SDS011;17871;31.584;74.450;2023-02-19T07:51:31;69.53;;;31.75;;
31238;SDS011;17871;31.584;74.450;2023-02-19T07:54:00;50.72;;;31.33;;
31238;SDS011;17871;31.584;74.450;2023-02-19T07:56:29;75.13;;;34.42;;
31238;SDS011;17871;31.584;74.450;2023-02-19T07:58:58;53.58;;;32.20;;
31238;SDS011;17871;31.584;74.450;2023-02-19T08:01:28;64.28;;;34.60;;
31238;SDS011;17871;31.584;74.450;2023-02-19T08:04:15;70.93;;;32.35;;
31238;SDS011;17871;31.584;74.450;2023-02-19T08:06:44;52.83;;;31.80;;
31238;SDS011;17871;31.584;74.450;2023-02-19T08:09:13;63.58;;;32.08;;
31238;SDS011;17871;31.584;74.450;2023-02-19T08:11:42;56.40;;;32.65;;
31238;SDS011;17871;31.584;74.450;2023-02-19T08:14:29;66.63;;;33.97;;
31238;SDS011;17871;31.584;74.450;2023-02-19T08:16:58;70.18;;;34.35;;
31238;SDS011;17871;31.584;74.450;2023-02-19T08:19:27;68.50;;;35.33;;
31238;SDS011;17871;31.584;74.450;2023-02-19T08:21:56;67.22;;;34.22;;
31238;SDS011;17871;31.584;74.450;2023-02-19T08:24:25;77.43;;;34.45;;
31238;SDS011;17871;31.584;74.450;2023-02-19T08:26:54;62.83;;;33.38;;
31238;SDS011;17871;31.584;74.450;2023-02-19T08:29:23;68.57;;;34.70;;
31238;SDS011;17871;31.584;74.450;2023-02-19T08:31:52;63.42;;;32.38;;
31238;SDS011;17871;31.584;74.450;2023-02-19T08:34:21;57.90;;;34.63;;
31238;SDS011;17871;31.584;74.450;2023-02-19T08:36:49;67.38;;;34.75;;
31238;SDS011;17871;31.584;74.450;2023-02-19T08:39:18;62.15;;;35.92;;
31238;SDS011;17871;31.584;74.450;2023-02-19T08:41:47;54.70;;;31.98;;
31238;SDS011;17871;31.584;74.450;2023-02-19T08:44:16;64.20;;;34.40;;
31238;SDS011;17871;31.584;74.450;2023-02-19T08:46:44;59.72;;;34.75;;
31238;SDS011;17871;31.584;74.450;2023-02-19T08:49:13;62.97;;;34.45;;
31238;SDS011;17871;31.584;74.450;2023-02-19T08:51:43;68.80;;;34.83;;
31238;SDS011;17871;31.584;74.450;2023-02-19T08:54:12;51.45;;;30.98;;
31238;SDS011;17871;31.584;74.450;2023-02-19T08:56:40;54.88;;;30.40;;
31238;SDS011;17871;31.584;74.450;2023-02-19T08:59:09;60.22;;;32.78;;
31238;SDS011;17871;31.584;74.450;2023-02-19T09:01:38;65.07;;;31.73;;
31238;SDS011;17871;31.584;74.450;2023-02-19T09:04:10;62.95;;;34.13;;
31238;SDS011;17871;31.584;74.450;2023-02-19T09:06:40;62.10;;;32.83;;
31238;SDS011;17871;31.584;74.450;2023-02-19T09:09:11;51.55;;;31.88;;
31238;SDS011;17871;31.584;74.450;2023-02-19T09:11:40;59.63;;;32.33;;
31238;SDS011;17871;31.584;74.450;2023-02-19T09:14:08;59.53;;;32.78;;
31238;SDS011;17871;31.584;74.450;2023-02-19T09:16:38;58.83;;;33.83;;
31238;SDS011;17871;31.584;74.450;2023-02-19T09:19:06;60.95;;;34.22;;
31238;SDS011;17871;31.584;74.450;2023-02-19T09:21:35;55.53;;;32.20;;
31238;SDS011;17871;31.584;74.450;2023-02-19T09:24:04;60.10;;;32.03;;
31238;SDS011;17871;31.584;74.450;2023-02-19T09:26:35;56.40;;;32.42;;
31238;SDS011;17871;31.584;74.450;2023-02-19T09:29:04;64.18;;;32.63;;
31238;SDS011;17871;31.584;74.450;2023-02-19T09:31:33;54.17;;;30.73;;
31238;SDS011;17871;31.584;74.450;2023-02-19T09:34:02;65.32;;;31.50;;
31238;SDS011;17871;31.584;74.450;2023-02-19T09:36:32;57.78;;;30.58;;
31238;SDS011;17871;31.584;74.450;2023-02-19T09:39:01;62.90;;;30.98;;
31238;SDS011;17871;31.584;74.450;2023-02-19T09:41:33;47.83;;;29.77;;
31238;SDS011;17871;31.584;74.450;2023-02-19T09:44:05;65.32;;;31.48;;
31238;SDS011;17871;31.584;74.450;2023-02-19T09:46:47;53.95;;;29.40;;
31238;SDS011;17871;31.584;74.450;2023-02-19T09:49:21;55.95;;;30.17;;
31238;SDS011;17871;31.584;74.450;2023-02-19T09:52:07;56.95;;;30.17;;
31238;SDS011;17871;31.584;74.450;2023-02-19T09:54:42;49.72;;;27.83;;
31238;SDS011;17871;31.584;74.450;2023-02-19T09:57:16;53.90;;;27.92;;
31238;SDS011;17871;31.584;74.450;2023-02-19T09:59:52;48.72;;;26.63;;
31238;SDS011;17871;31.584;74.450;2023-02-19T10:02:30;48.80;;;26.83;;
31238;SDS011;17871;31.584;74.450;2023-02-19T10:04:59;59.88;;;29.02;;
31238;SDS011;17871;31.584;74.450;2023-02-19T10:07:40;49.85;;;27.63;;
31238;SDS011;17871;31.584;74.450;2023-02-19T10:12:51;56.03;;;30.58;;
31238;SDS011;17871;31.584;74.450;2023-02-19T10:15:30;63.25;;;33.95;;
31238;SDS011;17871;31.584;74.450;2023-02-19T10:18:04;59.70;;;33.00;;
31238;SDS011;17871;31.584;74.450;2023-02-19T10:20:37;54.17;;;32.28;;
31238;SDS011;17871;31.584;74.450;2023-02-19T10:23:07;60.40;;;33.70;;
31238;SDS011;17871;31.584;74.450;2023-02-19T10:25:48;71.70;;;35.53;;
31238;SDS011;17871;31.584;74.450;2023-02-19T10:28:28;67.10;;;34.40;;
31238;SDS011;17871;31.584;74.450;2023-02-19T10:30:59;51.95;;;33.78;;
31238;SDS011;17871;31.584;74.450;2023-02-19T10:33:30;62.85;;;35.45;;
31238;SDS011;17871;31.584;74.450;2023-02-19T10:36:01;65.95;;;35.58;;
31238;SDS011;17871;31.584;74.450;2023-02-19T10:38:36;60.28;;;35.35;;
31238;SDS011;17871;31.584;74.450;2023-02-19T10:41:11;71.53;;;38.33;;
31238;SDS011;17871;31.584;74.450;2023-02-19T10:43:54;69.07;;;36.42;;
31238;SDS011;17871;31.584;74.450;2023-02-19T10:46:31;65.13;;;37.30;;
31238;SDS011;17871;31.584;74.450;2023-02-19T10:49:04;81.38;;;37.88;;
31238;SDS011;17871;31.584;74.450;2023-02-19T10:51:44;74.80;;;37.17;;
31238;SDS011;17871;31.584;74.450;2023-02-19T10:59:26;63.55;;;35.05;;
31238;SDS011;17871;31.584;74.450;2023-02-19T11:01:57;63.20;;;36.05;;
31238;SDS011;17871;31.584;74.450;2023-02-19T11:04:31;58.25;;;35.83;;
31238;SDS011;17871;31.584;74.450;2023-02-19T11:09:46;60.72;;;34.13;;
31238;SDS011;17871;31.584;74.450;2023-02-19T11:12:30;63.70;;;35.47;;
31238;SDS011;17871;31.584;74.450;2023-02-19T11:15:22;74.20;;;35.45;;
31238;SDS011;17871;31.584;74.450;2023-02-19T11:23:42;70.45;;;37.20;;
31238;SDS011;17871;31.584;74.450;2023-02-19T11:26:23;69.20;;;34.78;;
31238;SDS011;17871;31.584;74.450;2023-02-19T11:28:56;59.40;;;34.22;;
31238;SDS011;17871;31.584;74.450;2023-02-19T11:31:28;58.40;;;33.33;;
31238;SDS011;17871;31.584;74.450;2023-02-19T11:36:53;61.15;;;33.58;;
31238;SDS011;17871;31.584;74.450;2023-02-19T11:39:46;58.92;;;32.00;;
31238;SDS011;17871;31.584;74.450;2023-02-19T11:42:29;64.25;;;32.78;;
31238;SDS011;17871;31.584;74.450;2023-02-19T11:45:17;60.83;;;30.05;;
31238;SDS011;17871;31.584;74.450;2023-02-19T11:48:25;65.55;;;30.75;;
31238;SDS011;17871;31.584;74.450;2023-02-19T11:53:33;59.53;;;31.48;;
31238;SDS011;17871;31.584;74.450;2023-02-19T11:56:12;61.92;;;29.58;;
31238;SDS011;17871;31.584;74.450;2023-02-19T11:59:06;52.28;;;31.02;;
31238;SDS011;17871;31.584;74.450;2023-02-19T12:01:52;56.33;;;29.30;;
31238;SDS011;17871;31.584;74.450;2023-02-19T12:04:46;57.07;;;28.27;;
31238;SDS011;17871;31.584;74.450;2023-02-19T12:13:24;51.75;;;29.80;;
31238;SDS011;17871;31.584;74.450;2023-02-19T12:19:03;59.10;;;30.52;;
31238;SDS011;17871;31.584;74.450;2023-02-19T12:29:54;63.42;;;30.75;;
31238;SDS011;17871;31.584;74.450;2023-02-19T12:38:31;60.53;;;31.90;;
31238;SDS011;17871;31.584;74.450;2023-02-19T12:41:18;57.85;;;31.17;;
31238;SDS011;17871;31.584;74.450;2023-02-19T12:43:59;68.10;;;31.58;;
31238;SDS011;17871;31.584;74.450;2023-02-19T12:46:39;67.40;;;32.55;;
31238;SDS011;17871;31.584;74.450;2023-02-19T12:49:18;76.68;;;32.00;;
31238;SDS011;17871;31.584;74.450;2023-02-19T12:52:30;73.57;;;32.83;;
31238;SDS011;17871;31.584;74.450;2023-02-19T12:54:57;66.60;;;33.40;;
31238;SDS011;17871;31.584;74.450;2023-02-19T12:57:33;69.18;;;32.35;;
31238;SDS011;17871;31.584;74.450;2023-02-19T13:02:49;68.10;;;33.72;;
31238;SDS011;17871;31.584;74.450;2023-02-19T13:11:23;78.88;;;37.83;;
31238;SDS011;17871;31.584;74.450;2023-02-19T13:14:04;82.88;;;41.97;;
31238;SDS011;17871;31.584;74.450;2023-02-19T13:16:46;94.35;;;45.67;;
31238;SDS011;17871;31.584;74.450;2023-02-19T13:19:19;96.60;;;44.05;;
31238;SDS011;17871;31.584;74.450;2023-02-19T13:21:50;100.90;;;46.08;;
31238;SDS011;17871;31.584;74.450;2023-02-19T13:24:50;91.22;;;43.33;;
31238;SDS011;17871;31.584;74.450;2023-02-19T13:27:41;91.35;;;43.85;;
31238;SDS011;17871;31.584;74.450;2023-02-19T13:31:00;95.78;;;44.22;;
31238;SDS011;17871;31.584;74.450;2023-02-19T13:33:44;85.90;;;43.00;;
31238;SDS011;17871;31.584;74.450;2023-02-19T13:36:25;95.22;;;43.53;;
31238;SDS011;17871;31.584;74.450;2023-02-19T13:38:57;89.95;;;43.97;;
31238;SDS011;17871;31.584;74.450;2023-02-19T13:41:30;90.72;;;45.38;;
31238;SDS011;17871;31.584;74.450;2023-02-19T13:44:03;98.95;;;46.88;;
31238;SDS011;17871;31.584;74.450;2023-02-19T13:46:43;89.15;;;45.40;;
31238;SDS011;17871;31.584;74.450;2023-02-19T13:52:49;92.32;;;45.10;;
31238;SDS011;17871;31.584;74.450;2023-02-19T14:01:09;88.72;;;44.97;;
31238;SDS011;17871;31.584;74.450;2023-02-19T14:03:46;78.03;;;43.33;;
31238;SDS011;17871;31.584;74.450;2023-02-19T14:06:20;80.03;;;43.33;;
31238;SDS011;17871;31.584;74.450;2023-02-19T14:12:00;97.18;;;44.30;;
31238;SDS011;17871;31.584;74.450;2023-02-19T14:14:34;92.13;;;47.78;;
31238;SDS011;17871;31.584;74.450;2023-02-19T14:25:35;103.53;;;47.67;;
31238;SDS011;17871;31.584;74.450;2023-02-19T14:33:42;121.90;;;50.70;;
31238;SDS011;17871;31.584;74.450;2023-02-19T14:39:04;96.57;;;48.03;;
31238;SDS011;17871;31.584;74.450;2023-02-19T14:42:00;101.82;;;47.53;;
31238;SDS011;17871;31.584;74.450;2023-02-19T14:44:34;112.25;;;51.47;;
31238;SDS011;17871;31.584;74.450;2023-02-19T14:47:17;126.32;;;51.83;;
31238;SDS011;17871;31.584;74.450;2023-02-19T14:49:50;111.85;;;55.20;;
31238;SDS011;17871;31.584;74.450;2023-02-19T14:52:51;141.57;;;63.58;;
31238;SDS011;17871;31.584;74.450;2023-02-19T14:55:26;133.20;;;64.75;;
31238;SDS011;17871;31.584;74.450;2023-02-19T14:58:11;155.02;;;70.88;;
31238;SDS011;17871;31.584;74.450;2023-02-19T15:00:45;181.93;;;73.63;;
31238;SDS011;17871;31.584;74.450;2023-02-19T15:05:56;175.23;;;78.63;;
31238;SDS011;17871;31.584;74.450;2023-02-19T15:08:38;171.63;;;76.93;;
31238;SDS011;17871;31.584;74.450;2023-02-19T15:11:16;156.50;;;74.57;;
31238;SDS011;17871;31.584;74.450;2023-02-19T15:13:56;147.02;;;68.75;;
31238;SDS011;17871;31.584;74.450;2023-02-19T15:16:27;124.38;;;61.08;;
31238;SDS011;17871;31.584;74.450;2023-02-19T15:18:58;109.75;;;57.65;;
31238;SDS011;17871;31.584;74.450;2023-02-19T15:21:28;106.53;;;61.70;;
31238;SDS011;17871;31.584;74.450;2023-02-19T15:24:00;111.18;;;65.32;;
31238;SDS011;17871;31.584;74.450;2023-02-19T15:26:34;128.23;;;68.60;;
31238;SDS011;17871;31.584;74.450;2023-02-19T15:29:11;165.45;;;93.03;;
31238;SDS011;17871;31.584;74.450;2023-02-19T15:31:46;140.45;;;81.32;;
31238;SDS011;17871;31.584;74.450;2023-02-19T15:34:21;159.70;;;80.43;;
31238;SDS011;17871;31.584;74.450;2023-02-19T15:37:02;129.85;;;73.22;;
31238;SDS011;17871;31.584;74.450;2023-02-19T15:39:36;146.32;;;73.88;;
31238;SDS011;17871;31.584;74.450;2023-02-19T15:42:08;134.10;;;72.18;;
31238;SDS011;17871;31.584;74.450;2023-02-19T15:44:53;165.90;;;90.32;;
31238;SDS011;17871;31.584;74.450;2023-02-19T15:47:39;152.55;;;81.63;;
31238;SDS011;17871;31.584;74.450;2023-02-19T15:55:40;179.55;;;100.22;;
31238;SDS011;17871;31.584;74.450;2023-02-19T15:58:21;208.50;;;105.90;;
31238;SDS011;17871;31.584;74.450;2023-02-19T16:00:59;190.38;;;103.32;;
31238;SDS011;17871;31.584;74.450;2023-02-19T16:03:35;205.85;;;111.38;;
31238;SDS011;17871;31.584;74.450;2023-02-19T16:06:09;211.73;;;115.75;;
31238;SDS011;17871;31.584;74.450;2023-02-19T16:08:44;199.18;;;108.82;;
31238;SDS011;17871;31.584;74.450;2023-02-19T16:11:33;207.27;;;109.45;;
31238;SDS011;17871;31.584;74.450;2023-02-19T16:14:22;195.82;;;101.97;;
31238;SDS011;17871;31.584;74.450;2023-02-19T16:17:06;193.60;;;101.68;;
31238;SDS011;17871;31.584;74.450;2023-02-19T16:19:58;175.68;;;93.93;;
31238;SDS011;17871;31.584;74.450;2023-02-19T16:22:30;248.18;;;118.20;;
31238;SDS011;17871;31.584;74.450;2023-02-19T16:25:18;384.27;;;168.88;;
31238;SDS011;17871;31.584;74.450;2023-02-19T16:27:55;552.33;;;259.95;;
31238;SDS011;17871;31.584;74.450;2023-02-19T16:30:29;561.90;;;302.30;;
31238;SDS011;17871;31.584;74.450;2023-02-19T16:33:20;211.93;;;115.32;;
31238;SDS011;17871;31.584;74.450;2023-02-19T16:47:01;200.85;;;107.20;;
31238;SDS011;17871;31.584;74.450;2023-02-19T16:49:33;347.80;;;169.88;;
31238;SDS011;17871;31.584;74.450;2023-02-19T16:52:02;389.35;;;189.65;;
31238;SDS011;17871;31.584;74.450;2023-02-19T16:54:31;322.63;;;183.75;;
31238;SDS011;17871;31.584;74.450;2023-02-19T16:57:00;276.48;;;151.52;;
31238;SDS011;17871;31.584;74.450;2023-02-19T16:59:29;194.32;;;105.25;;